sensor_id;sensor_type;location;lat;lon;timestamp;pressure;altitude;pressure_sealevel;temperature;humidity
51067;BME280;37112;45.892;-123.962;2024-02-15T00:00:57;100374.66;;;4.67;88.43
51067;BME280;37112;45.892;-123.962;2024-02-15T00:03:20;100362.75;;;4.62;88.46
51067;BME280;37112;45.892;-123.962;2024-02-15T00:05:34;100360.65;;;4.59;88.38
51067;BME280;37112;45.892;-123.962;2024-02-15T00:07:49;100358.84;;;4.56;88.68
51067;BME280;37112;45.892;-123.962;2024-02-15T00:10:03;100351.38;;;4.57;89.07
51067;BME280;37112;45.892;-123.962;2024-02-15T00:12:17;100349.50;;;4.60;89.45
51067;BME280;37112;45.892;-123.962;2024-02-15T00:14:32;100346.02;;;4.63;89.60
51067;BME280;37112;45.892;-123.962;2024-02-15T00:16:46;100340.21;;;4.66;89.65
51067;BME280;37112;45.892;-123.962;2024-02-15T00:19:00;100337.09;;;4.69;89.59
51067;BME280;37112;45.892;-123.962;2024-02-15T00:21:14;100337.92;;;4.70;89.63
51067;BME280;37112;45.892;-123.962;2024-02-15T00:23:27;100328.70;;;4.71;89.70
51067;BME280;37112;45.892;-123.962;2024-02-15T00:25:42;100320.51;;;4.73;89.53
51067;BME280;37112;45.892;-123.962;2024-02-15T00:27:56;100311.73;;;4.73;89.58
51067;BME280;37112;45.892;-123.962;2024-02-15T00:30:12;100310.89;;;4.72;89.47
51067;BME280;37112;45.892;-123.962;2024-02-15T00:32:28;100305.22;;;4.73;89.50
51067;BME280;37112;45.892;-123.962;2024-02-15T00:34:42;100310.86;;;4.77;89.85
51067;BME280;37112;45.892;-123.962;2024-02-15T00:36:56;100307.80;;;4.82;89.96
51067;BME280;37112;45.892;-123.962;2024-02-15T00:39:10;100312.66;;;4.83;89.99
51067;BME280;37112;45.892;-123.962;2024-02-15T00:41:25;100317.70;;;4.84;89.92
51067;BME280;37112;45.892;-123.962;2024-02-15T00:43:39;100316.60;;;4.85;90.13
51067;BME280;37112;45.892;-123.962;2024-02-15T00:45:52;100335.42;;;4.89;90.28
51067;BME280;37112;45.892;-123.962;2024-02-15T00:48:07;100328.58;;;4.92;90.42
51067;BME280;37112;45.892;-123.962;2024-02-15T00:50:21;100324.88;;;4.95;90.58
51067;BME280;37112;45.892;-123.962;2024-02-15T00:52:34;100313.73;;;4.96;90.63
51067;BME280;37112;45.892;-123.962;2024-02-15T00:54:48;100309.40;;;4.99;90.71
51067;BME280;37112;45.892;-123.962;2024-02-15T00:57:01;100300.70;;;5.00;90.73
51067;BME280;37112;45.892;-123.962;2024-02-15T00:59:14;100287.27;;;5.01;90.75
51067;BME280;37112;45.892;-123.962;2024-02-15T01:01:29;100287.75;;;5.02;90.59
51067;BME280;37112;45.892;-123.962;2024-02-15T01:03:43;100281.79;;;5.02;90.82
51067;BME280;37112;45.892;-123.962;2024-02-15T01:05:56;100278.98;;;5.02;90.93
51067;BME280;37112;45.892;-123.962;2024-02-15T01:08:10;100273.89;;;5.01;90.80
51067;BME280;37112;45.892;-123.962;2024-02-15T01:10:24;100271.94;;;5.02;90.98
51067;BME280;37112;45.892;-123.962;2024-02-15T01:12:38;100265.27;;;5.01;91.10
51067;BME280;37112;45.892;-123.962;2024-02-15T01:14:52;100260.34;;;5.01;91.32
51067;BME280;37112;45.892;-123.962;2024-02-15T01:17:06;100259.98;;;5.01;91.39
51067;BME280;37112;45.892;-123.962;2024-02-15T01:19:20;100262.55;;;5.03;91.29
51067;BME280;37112;45.892;-123.962;2024-02-15T01:21:33;100260.32;;;5.02;91.18
51067;BME280;37112;45.892;-123.962;2024-02-15T01:23:47;100257.56;;;5.01;91.23
51067;BME280;37112;45.892;-123.962;2024-02-15T01:26:01;100264.13;;;5.00;91.42
51067;BME280;37112;45.892;-123.962;2024-02-15T01:28:16;100262.38;;;4.99;91.54
51067;BME280;37112;45.892;-123.962;2024-02-15T01:30:30;100266.77;;;5.00;91.88
51067;BME280;37112;45.892;-123.962;2024-02-15T01:32:43;100276.42;;;5.00;92.05
51067;BME280;37112;45.892;-123.962;2024-02-15T01:34:57;100283.12;;;5.00;92.06
51067;BME280;37112;45.892;-123.962;2024-02-15T01:37:11;100283.73;;;5.02;92.18
51067;BME280;37112;45.892;-123.962;2024-02-15T01:39:25;100278.81;;;5.01;92.01
51067;BME280;37112;45.892;-123.962;2024-02-15T01:41:38;100271.11;;;5.01;92.09
51067;BME280;37112;45.892;-123.962;2024-02-15T01:43:52;100271.11;;;5.01;92.01
51067;BME280;37112;45.892;-123.962;2024-02-15T01:46:10;100278.29;;;5.01;92.19
51067;BME280;37112;45.892;-123.962;2024-02-15T01:48:24;100270.20;;;5.01;92.43
51067;BME280;37112;45.892;-123.962;2024-02-15T01:50:38;100270.69;;;5.02;92.32
51067;BME280;37112;45.892;-123.962;2024-02-15T01:52:54;100268.95;;;5.05;92.41
51067;BME280;37112;45.892;-123.962;2024-02-15T01:55:11;100271.69;;;5.07;92.57
51067;BME280;37112;45.892;-123.962;2024-02-15T01:57:26;100274.41;;;5.09;92.68
51067;BME280;37112;45.892;-123.962;2024-02-15T01:59:41;100276.56;;;5.08;92.51
51067;BME280;37112;45.892;-123.962;2024-02-15T02:01:56;100270.11;;;5.07;92.38
51067;BME280;37112;45.892;-123.962;2024-02-15T02:04:11;100268.81;;;5.04;92.23
51067;BME280;37112;45.892;-123.962;2024-02-15T02:06:25;100264.86;;;5.02;92.20
51067;BME280;37112;45.892;-123.962;2024-02-15T02:08:39;100267.42;;;5.01;92.19
51067;BME280;37112;45.892;-123.962;2024-02-15T02:10:53;100274.80;;;5.01;92.28
51067;BME280;37112;45.892;-123.962;2024-02-15T02:13:07;100278.25;;;4.99;92.26
51067;BME280;37112;45.892;-123.962;2024-02-15T02:15:23;100275.38;;;4.96;92.27
51067;BME280;37112;45.892;-123.962;2024-02-15T02:17:38;100282.91;;;4.94;92.17
51067;BME280;37112;45.892;-123.962;2024-02-15T02:19:52;100281.27;;;4.92;92.23
51067;BME280;37112;45.892;-123.962;2024-02-15T02:22:06;100272.77;;;4.89;92.32
51067;BME280;37112;45.892;-123.962;2024-02-15T02:24:24;100271.30;;;4.87;92.41
51067;BME280;37112;45.892;-123.962;2024-02-15T02:26:38;100272.50;;;4.85;92.59
51067;BME280;37112;45.892;-123.962;2024-02-15T02:28:53;100262.58;;;4.82;92.55
51067;BME280;37112;45.892;-123.962;2024-02-15T02:31:07;100268.48;;;4.80;93.34
51067;BME280;37112;45.892;-123.962;2024-02-15T02:33:22;100265.89;;;4.80;93.36
51067;BME280;37112;45.892;-123.962;2024-02-15T02:35:36;100255.86;;;4.79;93.32
51067;BME280;37112;45.892;-123.962;2024-02-15T02:37:51;100251.02;;;4.81;93.35
51067;BME280;37112;45.892;-123.962;2024-02-15T02:40:07;100246.12;;;4.80;93.42
51067;BME280;37112;45.892;-123.962;2024-02-15T02:42:24;100232.45;;;4.79;93.42
51067;BME280;37112;45.892;-123.962;2024-02-15T02:44:37;100223.84;;;4.80;93.54
51067;BME280;37112;45.892;-123.962;2024-02-15T02:46:51;100221.91;;;4.80;93.60
51067;BME280;37112;45.892;-123.962;2024-02-15T02:49:05;100213.77;;;4.80;93.68
51067;BME280;37112;45.892;-123.962;2024-02-15T02:51:19;100208.66;;;4.81;93.94
51067;BME280;37112;45.892;-123.962;2024-02-15T02:53:32;100206.96;;;4.83;94.22
51067;BME280;37112;45.892;-123.962;2024-02-15T02:55:46;100213.00;;;4.85;94.37
51067;BME280;37112;45.892;-123.962;2024-02-15T02:58:00;100211.46;;;4.88;94.65
51067;BME280;37112;45.892;-123.962;2024-02-15T03:00:17;100222.87;;;4.88;94.83
51067;BME280;37112;45.892;-123.962;2024-02-15T03:02:31;100226.19;;;4.88;94.63
51067;BME280;37112;45.892;-123.962;2024-02-15T03:04:44;100214.80;;;4.88;94.82
51067;BME280;37112;45.892;-123.962;2024-02-15T03:06:58;100210.32;;;4.86;94.60
51067;BME280;37112;45.892;-123.962;2024-02-15T03:09:12;100209.63;;;4.86;94.71
51067;BME280;37112;45.892;-123.962;2024-02-15T03:11:25;100210.94;;;4.84;94.53
51067;BME280;37112;45.892;-123.962;2024-02-15T03:13:39;100209.16;;;4.85;94.77
51067;BME280;37112;45.892;-123.962;2024-02-15T03:15:55;100204.71;;;4.86;94.77
51067;BME280;37112;45.892;-123.962;2024-02-15T03:18:08;100200.17;;;4.85;94.54
51067;BME280;37112;45.892;-123.962;2024-02-15T03:20:22;100196.86;;;4.84;94.55
51067;BME280;37112;45.892;-123.962;2024-02-15T03:22:37;100199.13;;;4.85;94.49
51067;BME280;37112;45.892;-123.962;2024-02-15T03:24:51;100193.45;;;4.86;94.63
51067;BME280;37112;45.892;-123.962;2024-02-15T03:27:05;100171.52;;;4.85;94.72
51067;BME280;37112;45.892;-123.962;2024-02-15T03:29:21;100180.66;;;4.85;95.16
51067;BME280;37112;45.892;-123.962;2024-02-15T03:31:34;100171.13;;;4.85;95.36
51067;BME280;37112;45.892;-123.962;2024-02-15T03:33:48;100177.91;;;4.87;95.35
51067;BME280;37112;45.892;-123.962;2024-02-15T03:36:02;100162.73;;;4.87;95.18
51067;BME280;37112;45.892;-123.962;2024-02-15T03:38:16;100145.46;;;4.88;95.42
51067;BME280;37112;45.892;-123.962;2024-02-15T03:40:31;100127.41;;;4.87;95.35
51067;BME280;37112;45.892;-123.962;2024-02-15T03:42:45;100117.88;;;4.87;95.39
51067;BME280;37112;45.892;-123.962;2024-02-15T03:45:01;100102.08;;;4.87;95.62
51067;BME280;37112;45.892;-123.962;2024-02-15T03:47:14;100098.73;;;4.87;95.69
51067;BME280;37112;45.892;-123.962;2024-02-15T03:49:28;100105.77;;;4.87;95.64
51067;BME280;37112;45.892;-123.962;2024-02-15T03:51:43;100089.89;;;4.88;95.97
51067;BME280;37112;45.892;-123.962;2024-02-15T03:53:56;100071.80;;;4.87;96.01
51067;BME280;37112;45.892;-123.962;2024-02-15T03:56:11;100059.83;;;4.87;96.02
51067;BME280;37112;45.892;-123.962;2024-02-15T03:58:25;100060.69;;;4.88;96.24
51067;BME280;37112;45.892;-123.962;2024-02-15T04:00:39;100055.54;;;4.89;96.19
51067;BME280;37112;45.892;-123.962;2024-02-15T04:02:52;100050.11;;;4.88;96.03
51067;BME280;37112;45.892;-123.962;2024-02-15T04:05:07;100049.89;;;4.89;96.27
51067;BME280;37112;45.892;-123.962;2024-02-15T04:07:20;100051.27;;;4.89;96.12
51067;BME280;37112;45.892;-123.962;2024-02-15T04:09:35;100051.08;;;4.90;96.23
51067;BME280;37112;45.892;-123.962;2024-02-15T04:11:48;100047.54;;;4.90;96.18
51067;BME280;37112;45.892;-123.962;2024-02-15T04:14:03;100050.16;;;4.91;96.05
51067;BME280;37112;45.892;-123.962;2024-02-15T04:16:17;100053.62;;;4.92;96.20
51067;BME280;37112;45.892;-123.962;2024-02-15T04:18:30;100059.23;;;4.92;96.08
51067;BME280;37112;45.892;-123.962;2024-02-15T04:20:43;100054.84;;;4.92;96.00
51067;BME280;37112;45.892;-123.962;2024-02-15T04:22:59;100050.95;;;4.92;96.09
51067;BME280;37112;45.892;-123.962;2024-02-15T04:25:12;100043.10;;;4.91;96.30
51067;BME280;37112;45.892;-123.962;2024-02-15T04:27:27;100041.58;;;4.90;96.19
51067;BME280;37112;45.892;-123.962;2024-02-15T04:29:40;100031.98;;;4.88;96.09
51067;BME280;37112;45.892;-123.962;2024-02-15T04:31:54;100048.73;;;4.88;96.18
51067;BME280;37112;45.892;-123.962;2024-02-15T04:34:08;100029.56;;;4.87;96.39
51067;BME280;37112;45.892;-123.962;2024-02-15T04:36:22;100026.35;;;4.88;96.47
51067;BME280;37112;45.892;-123.962;2024-02-15T04:38:35;100023.84;;;4.89;96.79
51067;BME280;37112;45.892;-123.962;2024-02-15T04:40:49;100015.77;;;4.89;96.89
51067;BME280;37112;45.892;-123.962;2024-02-15T04:43:04;100003.32;;;4.88;96.63
51067;BME280;37112;45.892;-123.962;2024-02-15T04:45:17;100005.20;;;4.89;96.80
51067;BME280;37112;45.892;-123.962;2024-02-15T04:47:32;100012.88;;;4.90;97.30
51067;BME280;37112;45.892;-123.962;2024-02-15T04:49:46;100014.17;;;4.92;97.08
51067;BME280;37112;45.892;-123.962;2024-02-15T04:51:59;100015.90;;;4.96;98.01
51067;BME280;37112;45.892;-123.962;2024-02-15T04:54:13;100012.13;;;5.00;98.28
51067;BME280;37112;45.892;-123.962;2024-02-15T04:56:28;100012.52;;;5.03;98.07
51067;BME280;37112;45.892;-123.962;2024-02-15T04:58:43;100028.70;;;5.03;97.80
51067;BME280;37112;45.892;-123.962;2024-02-15T05:00:58;100028.92;;;5.02;97.77
51067;BME280;37112;45.892;-123.962;2024-02-15T05:03:11;100038.48;;;5.04;97.96
51067;BME280;37112;45.892;-123.962;2024-02-15T05:05:23;100049.66;;;5.06;98.19
51067;BME280;37112;45.892;-123.962;2024-02-15T05:07:38;100054.85;;;5.08;98.34
51067;BME280;37112;45.892;-123.962;2024-02-15T05:09:51;100067.44;;;5.09;98.59
51067;BME280;37112;45.892;-123.962;2024-02-15T05:12:05;100071.48;;;5.09;98.50
51067;BME280;37112;45.892;-123.962;2024-02-15T05:14:19;100069.50;;;5.07;98.18
51067;BME280;37112;45.892;-123.962;2024-02-15T05:16:34;100076.65;;;5.05;97.99
51067;BME280;37112;45.892;-123.962;2024-02-15T05:18:52;100083.83;;;5.02;98.00
51067;BME280;37112;45.892;-123.962;2024-02-15T05:21:06;100080.30;;;4.99;97.74
51067;BME280;37112;45.892;-123.962;2024-02-15T05:23:20;100085.13;;;4.94;97.57
51067;BME280;37112;45.892;-123.962;2024-02-15T05:25:33;100089.95;;;4.90;97.72
51067;BME280;37112;45.892;-123.962;2024-02-15T05:27:46;100093.43;;;4.87;97.82
51067;BME280;37112;45.892;-123.962;2024-02-15T05:29:59;100088.65;;;4.85;97.77
51067;BME280;37112;45.892;-123.962;2024-02-15T05:32:13;100082.36;;;4.84;97.99
51067;BME280;37112;45.892;-123.962;2024-02-15T05:34:28;100081.69;;;4.84;97.95
51067;BME280;37112;45.892;-123.962;2024-02-15T05:36:42;100090.11;;;4.84;98.09
51067;BME280;37112;45.892;-123.962;2024-02-15T05:38:55;100066.59;;;4.83;98.01
51067;BME280;37112;45.892;-123.962;2024-02-15T05:41:09;100074.67;;;4.83;98.15
51067;BME280;37112;45.892;-123.962;2024-02-15T05:43:22;100072.56;;;4.83;98.41
51067;BME280;37112;45.892;-123.962;2024-02-15T05:45:36;100064.85;;;4.86;98.55
51067;BME280;37112;45.892;-123.962;2024-02-15T05:47:50;100061.55;;;4.88;98.48
51067;BME280;37112;45.892;-123.962;2024-02-15T05:50:03;100064.07;;;4.90;98.42
51067;BME280;37112;45.892;-123.962;2024-02-15T05:52:17;100065.34;;;4.93;98.59
51067;BME280;37112;45.892;-123.962;2024-02-15T05:54:30;100060.58;;;4.96;98.68
51067;BME280;37112;45.892;-123.962;2024-02-15T05:56:44;100054.94;;;4.99;98.93
51067;BME280;37112;45.892;-123.962;2024-02-15T05:59:02;100054.21;;;5.03;99.70
51067;BME280;37112;45.892;-123.962;2024-02-15T06:01:20;100049.01;;;5.18;100.00
51067;BME280;37112;45.892;-123.962;2024-02-15T06:03:35;100044.14;;;5.35;100.00
51067;BME280;37112;45.892;-123.962;2024-02-15T06:05:50;100041.66;;;5.51;100.00
51067;BME280;37112;45.892;-123.962;2024-02-15T06:08:09;100049.97;;;5.60;100.00
51067;BME280;37112;45.892;-123.962;2024-02-15T06:10:23;100050.03;;;5.71;100.00
51067;BME280;37112;45.892;-123.962;2024-02-15T06:12:36;100059.77;;;5.79;100.00
51067;BME280;37112;45.892;-123.962;2024-02-15T06:14:49;100048.38;;;5.90;100.00
51067;BME280;37112;45.892;-123.962;2024-02-15T06:17:03;100043.73;;;5.98;100.00
51067;BME280;37112;45.892;-123.962;2024-02-15T06:19:16;100050.16;;;6.14;100.00
51067;BME280;37112;45.892;-123.962;2024-02-15T06:21:29;100049.56;;;6.18;100.00
51067;BME280;37112;45.892;-123.962;2024-02-15T06:23:42;100049.96;;;6.14;100.00
51067;BME280;37112;45.892;-123.962;2024-02-15T06:25:56;100054.54;;;6.11;100.00
51067;BME280;37112;45.892;-123.962;2024-02-15T06:28:11;100055.20;;;6.12;100.00
51067;BME280;37112;45.892;-123.962;2024-02-15T06:30:51;100055.01;;;6.15;100.00
51067;BME280;37112;45.892;-123.962;2024-02-15T06:33:21;100036.83;;;6.16;100.00
51067;BME280;37112;45.892;-123.962;2024-02-15T06:35:51;100039.50;;;6.15;100.00
51067;BME280;37112;45.892;-123.962;2024-02-15T06:38:20;100037.48;;;6.23;100.00
51067;BME280;37112;45.892;-123.962;2024-02-15T06:40:50;100032.47;;;6.21;100.00
51067;BME280;37112;45.892;-123.962;2024-02-15T06:43:04;100037.95;;;6.21;100.00
51067;BME280;37112;45.892;-123.962;2024-02-15T06:45:18;100053.55;;;6.16;100.00
51067;BME280;37112;45.892;-123.962;2024-02-15T06:47:32;100039.55;;;6.11;100.00
51067;BME280;37112;45.892;-123.962;2024-02-15T06:49:45;100039.00;;;6.06;100.00
51067;BME280;37112;45.892;-123.962;2024-02-15T06:52:01;100032.02;;;6.08;100.00
51067;BME280;37112;45.892;-123.962;2024-02-15T06:54:15;100026.45;;;6.18;100.00
51067;BME280;37112;45.892;-123.962;2024-02-15T06:56:28;100029.58;;;6.28;100.00
51067;BME280;37112;45.892;-123.962;2024-02-15T06:58:43;100026.05;;;6.51;100.00
51067;BME280;37112;45.892;-123.962;2024-02-15T07:00:57;100034.48;;;6.74;100.00
51067;BME280;37112;45.892;-123.962;2024-02-15T07:03:10;100034.75;;;6.89;100.00
51067;BME280;37112;45.892;-123.962;2024-02-15T07:05:23;100029.59;;;7.01;100.00
51067;BME280;37112;45.892;-123.962;2024-02-15T07:07:38;100023.18;;;7.10;100.00
51067;BME280;37112;45.892;-123.962;2024-02-15T07:09:53;100014.08;;;7.23;100.00
51067;BME280;37112;45.892;-123.962;2024-02-15T07:12:07;100006.81;;;7.37;100.00
51067;BME280;37112;45.892;-123.962;2024-02-15T07:14:20;100008.75;;;7.50;100.00
51067;BME280;37112;45.892;-123.962;2024-02-15T07:16:33;99998.63;;;7.62;100.00
51067;BME280;37112;45.892;-123.962;2024-02-15T07:18:46;100002.69;;;7.75;100.00
51067;BME280;37112;45.892;-123.962;2024-02-15T07:21:00;100003.41;;;7.87;100.00
51067;BME280;37112;45.892;-123.962;2024-02-15T07:23:14;99994.52;;;7.96;100.00
51067;BME280;37112;45.892;-123.962;2024-02-15T07:25:28;99991.85;;;8.06;100.00
51067;BME280;37112;45.892;-123.962;2024-02-15T07:27:41;100011.27;;;8.17;100.00
51067;BME280;37112;45.892;-123.962;2024-02-15T07:29:54;100013.88;;;8.26;100.00
51067;BME280;37112;45.892;-123.962;2024-02-15T07:32:08;100017.61;;;8.33;100.00
51067;BME280;37112;45.892;-123.962;2024-02-15T07:34:22;100029.67;;;8.38;100.00
51067;BME280;37112;45.892;-123.962;2024-02-15T07:36:37;100037.05;;;8.42;100.00
51067;BME280;37112;45.892;-123.962;2024-02-15T07:38:53;100030.85;;;8.47;100.00
51067;BME280;37112;45.892;-123.962;2024-02-15T07:41:09;100043.14;;;8.53;100.00
51067;BME280;37112;45.892;-123.962;2024-02-15T07:43:23;100050.08;;;8.68;100.00
51067;BME280;37112;45.892;-123.962;2024-02-15T07:45:37;100054.24;;;8.84;100.00
51067;BME280;37112;45.892;-123.962;2024-02-15T07:47:50;100060.69;;;8.95;100.00
51067;BME280;37112;45.892;-123.962;2024-02-15T07:50:04;100060.63;;;9.06;100.00
51067;BME280;37112;45.892;-123.962;2024-02-15T07:52:20;100062.70;;;9.14;100.00
51067;BME280;37112;45.892;-123.962;2024-02-15T07:54:33;100068.38;;;9.19;100.00
51067;BME280;37112;45.892;-123.962;2024-02-15T07:56:46;100073.52;;;9.21;100.00
51067;BME280;37112;45.892;-123.962;2024-02-15T07:59:00;100077.14;;;9.23;100.00
51067;BME280;37112;45.892;-123.962;2024-02-15T08:01:14;100076.75;;;9.23;100.00
51067;BME280;37112;45.892;-123.962;2024-02-15T08:03:27;100079.42;;;9.26;100.00
51067;BME280;37112;45.892;-123.962;2024-02-15T08:05:40;100078.05;;;9.28;100.00
51067;BME280;37112;45.892;-123.962;2024-02-15T08:07:53;100081.38;;;9.30;100.00
51067;BME280;37112;45.892;-123.962;2024-02-15T08:10:10;100083.71;;;9.32;100.00
51067;BME280;37112;45.892;-123.962;2024-02-15T08:12:25;100093.45;;;9.35;100.00
51067;BME280;37112;45.892;-123.962;2024-02-15T08:14:41;100088.88;;;9.34;100.00
51067;BME280;37112;45.892;-123.962;2024-02-15T08:16:56;100094.53;;;9.32;100.00
51067;BME280;37112;45.892;-123.962;2024-02-15T08:19:09;100105.27;;;9.31;100.00
51067;BME280;37112;45.892;-123.962;2024-02-15T08:21:27;100108.39;;;9.29;100.00
51067;BME280;37112;45.892;-123.962;2024-02-15T08:23:43;100113.28;;;9.25;100.00
51067;BME280;37112;45.892;-123.962;2024-02-15T08:25:56;100111.97;;;9.24;100.00
51067;BME280;37112;45.892;-123.962;2024-02-15T08:28:10;100110.45;;;9.23;100.00
51067;BME280;37112;45.892;-123.962;2024-02-15T08:30:23;100106.77;;;9.24;100.00
51067;BME280;37112;45.892;-123.962;2024-02-15T08:32:39;100112.75;;;9.25;100.00
51067;BME280;37112;45.892;-123.962;2024-02-15T08:34:53;100113.10;;;9.25;100.00
51067;BME280;37112;45.892;-123.962;2024-02-15T08:37:06;100117.13;;;9.26;100.00
51067;BME280;37112;45.892;-123.962;2024-02-15T08:39:20;100120.27;;;9.27;100.00
51067;BME280;37112;45.892;-123.962;2024-02-15T08:41:33;100120.25;;;9.27;100.00
51067;BME280;37112;45.892;-123.962;2024-02-15T08:43:48;100120.80;;;9.27;100.00
51067;BME280;37112;45.892;-123.962;2024-02-15T08:46:01;100121.05;;;9.26;100.00
51067;BME280;37112;45.892;-123.962;2024-02-15T08:48:15;100123.92;;;9.25;100.00
51067;BME280;37112;45.892;-123.962;2024-02-15T08:50:28;100129.21;;;9.23;100.00
51067;BME280;37112;45.892;-123.962;2024-02-15T08:52:42;100135.23;;;9.20;100.00
51067;BME280;37112;45.892;-123.962;2024-02-15T08:54:55;100139.00;;;9.17;100.00
51067;BME280;37112;45.892;-123.962;2024-02-15T08:57:09;100146.55;;;9.15;100.00
51067;BME280;37112;45.892;-123.962;2024-02-15T08:59:24;100151.27;;;9.14;100.00
51067;BME280;37112;45.892;-123.962;2024-02-15T09:01:38;100152.61;;;9.12;100.00
51067;BME280;37112;45.892;-123.962;2024-02-15T09:03:51;100160.75;;;9.10;100.00
51067;BME280;37112;45.892;-123.962;2024-02-15T09:06:05;100166.21;;;9.08;100.00
51067;BME280;37112;45.892;-123.962;2024-02-15T09:08:19;100169.25;;;9.08;100.00
51067;BME280;37112;45.892;-123.962;2024-02-15T09:10:32;100177.81;;;9.07;100.00
51067;BME280;37112;45.892;-123.962;2024-02-15T09:12:47;100183.47;;;9.05;100.00
51067;BME280;37112;45.892;-123.962;2024-02-15T09:15:01;100189.64;;;9.02;100.00
51067;BME280;37112;45.892;-123.962;2024-02-15T09:17:16;100201.85;;;9.03;100.00
51067;BME280;37112;45.892;-123.962;2024-02-15T09:19:29;100211.71;;;9.00;100.00
51067;BME280;37112;45.892;-123.962;2024-02-15T09:21:43;100213.63;;;8.96;100.00
51067;BME280;37112;45.892;-123.962;2024-02-15T09:23:56;100221.02;;;8.91;100.00
51067;BME280;37112;45.892;-123.962;2024-02-15T09:26:09;100227.59;;;8.88;100.00
51067;BME280;37112;45.892;-123.962;2024-02-15T09:28:22;100235.63;;;8.85;100.00
51067;BME280;37112;45.892;-123.962;2024-02-15T09:30:36;100240.91;;;8.83;100.00
51067;BME280;37112;45.892;-123.962;2024-02-15T09:32:49;100249.73;;;8.76;100.00
51067;BME280;37112;45.892;-123.962;2024-02-15T09:35:02;100255.63;;;8.67;100.00
51067;BME280;37112;45.892;-123.962;2024-02-15T09:37:18;100266.69;;;8.60;100.00
51067;BME280;37112;45.892;-123.962;2024-02-15T09:39:32;100275.67;;;8.53;100.00
51067;BME280;37112;45.892;-123.962;2024-02-15T09:41:47;100280.73;;;8.46;100.00
51067;BME280;37112;45.892;-123.962;2024-02-15T09:44:06;100292.35;;;8.38;100.00
51067;BME280;37112;45.892;-123.962;2024-02-15T09:46:19;100295.05;;;8.32;100.00
51067;BME280;37112;45.892;-123.962;2024-02-15T09:48:34;100304.27;;;8.29;100.00
51067;BME280;37112;45.892;-123.962;2024-02-15T09:50:48;100310.21;;;8.27;100.00
51067;BME280;37112;45.892;-123.962;2024-02-15T09:53:04;100321.41;;;8.23;100.00
51067;BME280;37112;45.892;-123.962;2024-02-15T09:55:18;100333.29;;;8.18;100.00
51067;BME280;37112;45.892;-123.962;2024-02-15T09:57:34;100341.39;;;8.13;100.00
51067;BME280;37112;45.892;-123.962;2024-02-15T09:59:50;100351.43;;;8.07;100.00
51067;BME280;37112;45.892;-123.962;2024-02-15T10:02:03;100360.54;;;8.01;100.00
51067;BME280;37112;45.892;-123.962;2024-02-15T10:04:21;100373.81;;;7.98;100.00
51067;BME280;37112;45.892;-123.962;2024-02-15T10:06:34;100383.49;;;7.93;100.00
51067;BME280;37112;45.892;-123.962;2024-02-15T10:08:48;100393.45;;;7.86;99.89
51067;BME280;37112;45.892;-123.962;2024-02-15T10:11:10;100400.78;;;7.79;99.75
51067;BME280;37112;45.892;-123.962;2024-02-15T10:13:25;100408.63;;;7.72;98.84
51067;BME280;37112;45.892;-123.962;2024-02-15T10:15:39;100416.84;;;7.67;99.39
51067;BME280;37112;45.892;-123.962;2024-02-15T10:17:59;100424.64;;;7.64;99.25
51067;BME280;37112;45.892;-123.962;2024-02-15T10:20:14;100429.52;;;7.62;99.78
51067;BME280;37112;45.892;-123.962;2024-02-15T10:22:27;100437.98;;;7.60;99.61
51067;BME280;37112;45.892;-123.962;2024-02-15T10:24:41;100450.36;;;7.57;99.53
51067;BME280;37112;45.892;-123.962;2024-02-15T10:27:00;100456.03;;;7.53;99.13
51067;BME280;37112;45.892;-123.962;2024-02-15T10:29:14;100455.39;;;7.49;99.04
51067;BME280;37112;45.892;-123.962;2024-02-15T10:31:28;100462.29;;;7.46;99.19
51067;BME280;37112;45.892;-123.962;2024-02-15T10:33:47;100470.30;;;7.42;99.22
51067;BME280;37112;45.892;-123.962;2024-02-15T10:36:10;100474.30;;;7.37;98.32
51067;BME280;37112;45.892;-123.962;2024-02-15T10:38:28;100482.25;;;7.31;98.03
51067;BME280;37112;45.892;-123.962;2024-02-15T10:40:41;100489.02;;;7.27;98.35
51067;BME280;37112;45.892;-123.962;2024-02-15T10:43:08;100497.13;;;7.24;98.37
51067;BME280;37112;45.892;-123.962;2024-02-15T10:45:23;100500.42;;;7.22;98.45
51067;BME280;37112;45.892;-123.962;2024-02-15T10:47:39;100509.70;;;7.20;98.51
51067;BME280;37112;45.892;-123.962;2024-02-15T10:49:53;100518.29;;;7.19;98.61
51067;BME280;37112;45.892;-123.962;2024-02-15T10:52:08;100525.34;;;7.15;98.51
51067;BME280;37112;45.892;-123.962;2024-02-15T10:54:43;100536.30;;;7.12;98.38
51067;BME280;37112;45.892;-123.962;2024-02-15T10:57:04;100538.86;;;7.07;98.10
51067;BME280;37112;45.892;-123.962;2024-02-15T10:59:21;100541.16;;;7.04;98.19
51067;BME280;37112;45.892;-123.962;2024-02-15T11:01:38;100551.05;;;7.01;97.94
51067;BME280;37112;45.892;-123.962;2024-02-15T11:03:59;100550.41;;;6.96;97.79
51067;BME280;37112;45.892;-123.962;2024-02-15T11:06:14;100559.62;;;6.93;98.03
51067;BME280;37112;45.892;-123.962;2024-02-15T11:08:30;100560.41;;;6.91;98.23
51067;BME280;37112;45.892;-123.962;2024-02-15T11:10:45;100571.29;;;6.89;98.36
51067;BME280;37112;45.892;-123.962;2024-02-15T11:12:59;100572.22;;;6.85;97.80
51067;BME280;37112;45.892;-123.962;2024-02-15T11:15:14;100576.02;;;6.80;97.74
51067;BME280;37112;45.892;-123.962;2024-02-15T11:17:50;100580.27;;;6.76;97.50
51067;BME280;37112;45.892;-123.962;2024-02-15T11:20:08;100589.55;;;6.72;97.09
51067;BME280;37112;45.892;-123.962;2024-02-15T11:22:23;100597.62;;;6.68;97.41